Time;durP1;ratioP1;P1;durP2;ratioP2;P2;SDS_P1;SDS_P2;PMS_P1;PMS_P2;Temp;Humidity;BMP_temperature;BMP_pressure;BME280_temperature;BME280_humidity;BME280_pressure;Samples;Min_cycle;Max_cycle;Signal;HPM_P1;HPM_P2
2023/04/23 08:07:37;;;;;;;3.13;1.13;;;20.20;99.90;;;;;;4941377;29;20235;-71
2023/04/23 08:10:05;;;;;;;1.30;0.80;;;20.10;99.90;;;;;;4953012;29;20693;-70
2023/04/23 08:12:34;;;;;;;5.05;1.05;;;19.80;99.90;;;;;;4936762;29;20256;-71
2023/04/23 08:15:01;;;;;;;3.33;0.80;;;19.10;99.90;;;;;;4936285;29;20292;-71
2023/04/23 08:17:28;;;;;;;2.97;0.80;;;19.10;99.90;;;;;;4936547;29;20244;-72
2023/04/23 08:19:55;;;;;;;3.28;0.90;;;18.70;99.90;;;;;;4936385;29;20246;-72
2023/04/23 08:22:22;;;;;;;4.75;1.08;;;18.70;99.90;;;;;;4935916;29;20232;-72
2023/04/23 08:24:50;;;;;;;1.63;0.70;;;18.40;99.90;;;;;;4935847;29;20292;-71
2023/04/23 08:27:17;;;;;;;1.58;0.85;;;18.50;99.90;;;;;;4936285;29;20315;-71
2023/04/23 08:29:44;;;;;;;2.40;0.80;;;18.80;99.90;;;;;;4936175;29;20256;-71
2023/04/23 08:32:11;;;;;;;1.75;0.90;;;19.20;99.90;;;;;;4936233;29;20236;-70
2023/04/23 08:34:39;;;;;;;1.13;0.80;;;19.40;99.90;;;;;;4935861;29;20204;-71
2023/04/23 08:37:06;;;;;;;1.88;0.80;;;19.30;99.90;;;;;;4936422;29;20299;-70
2023/04/23 08:39:34;;;;;;;1.52;0.70;;;18.80;99.90;;;;;;4936204;29;20769;-70
2023/04/23 08:42:09;;;;;;;3.58;0.95;;;18.20;99.90;;;;;;4935983;29;20209;-71
2023/04/23 08:44:37;;;;;;;3.03;0.95;;;18.30;99.90;;;;;;4935717;29;20295;-71
2023/04/23 08:47:06;;;;;;;1.95;0.77;;;18.30;99.90;;;;;;4935920;29;20308;-69
2023/04/23 08:49:34;;;;;;;3.83;0.90;;;18.30;99.90;;;;;;4935920;29;20717;-72
2023/04/23 08:52:15;;;;;;;1.73;0.90;;;18.00;99.90;;;;;;4936045;29;20224;-69
2023/04/23 08:54:45;;;;;;;0.77;0.63;;;17.30;99.90;;;;;;4935689;29;20208;-70
2023/04/23 08:57:15;;;;;;;2.25;0.80;;;17.40;99.90;;;;;;4935837;29;20236;-71
2023/04/23 08:59:44;;;;;;;2.38;0.70;;;17.80;99.90;;;;;;4935609;29;20272;-72
2023/04/23 09:02:13;;;;;;;2.58;0.85;;;18.00;99.90;;;;;;4935649;29;20562;-70
2023/04/23 09:04:41;;;;;;;4.55;0.70;;;17.90;99.90;;;;;;4935752;29;20240;-70
2023/04/23 09:07:10;;;;;;;0.70;0.50;;;17.60;99.90;;;;;;4935546;29;20308;-70
2023/04/23 09:09:38;;;;;;;2.67;1.23;;;17.70;99.90;;;;;;4935568;29;20240;-70
2023/04/23 09:12:06;;;;;;;2.03;0.77;;;17.60;99.90;;;;;;4935642;29;20295;-73
2023/04/23 09:14:35;;;;;;;3.58;1.00;;;17.90;99.90;;;;;;4935516;29;20209;-69
2023/04/23 09:17:02;;;;;;;1.67;0.77;;;18.10;99.90;;;;;;4935582;29;20213;-70
2023/04/23 09:19:29;;;;;;;2.42;0.88;;;18.50;99.90;;;;;;4935540;29;20212;-73
2023/04/23 09:21:57;;;;;;;5.93;0.90;;;19.00;99.90;;;;;;4935246;29;20256;-72
2023/04/23 09:24:25;;;;;;;1.48;0.77;;;19.10;99.90;;;;;;4935583;29;20323;-71
2023/04/23 09:26:53;;;;;;;1.65;0.60;;;19.00;99.90;;;;;;4935559;29;20244;-71
2023/04/23 09:29:22;;;;;;;4.93;0.60;;;18.70;99.90;;;;;;4934899;29;20598;-71
2023/04/23 09:31:51;;;;;;;0.90;0.73;;;18.60;99.90;;;;;;4935277;29;20665;-73
2023/04/23 09:34:19;;;;;;;3.08;0.80;;;18.40;99.90;;;;;;4935536;29;20228;-71
2023/04/23 09:36:49;;;;;;;1.45;0.60;;;18.40;99.90;;;;;;4935383;29;20292;-74
2023/04/23 09:39:17;;;;;;;1.75;0.70;;;18.30;99.90;;;;;;4935344;29;20700;-71
2023/04/23 09:41:45;;;;;;;1.08;0.60;;;18.30;99.90;;;;;;4935212;29;20292;-71
2023/04/23 09:44:17;;;;;;;2.15;0.50;;;18.40;99.90;;;;;;4934836;29;20548;-70
2023/04/23 09:46:44;;;;;;;4.25;0.60;;;18.50;99.90;;;;;;4935391;29;20244;-70
2023/04/23 09:49:14;;;;;;;5.55;0.93;;;18.30;99.90;;;;;;4934963;29;20763;-70
2023/04/23 09:51:43;;;;;;;3.28;0.75;;;18.00;99.90;;;;;;4934916;29;20251;-69
2023/04/23 09:54:15;;;;;;;1.08;0.50;;;18.10;99.90;;;;;;4934960;29;20316;-71
2023/04/23 09:56:42;;;;;;;2.97;0.60;;;18.00;99.90;;;;;;4935018;29;20236;-70
2023/04/23 09:59:20;;;;;;;1.80;0.60;;;17.90;99.90;;;;;;4935276;29;20228;-69
2023/04/23 10:01:47;;;;;;;0.60;0.50;;;18.30;99.90;;;;;;4934897;29;20214;-69
2023/04/23 10:04:18;;;;;;;0.65;0.32;;;18.50;99.90;;;;;;4934879;29;20263;-70
2023/04/23 10:06:45;;;;;;;1.73;0.60;;;18.50;99.90;;;;;;4934787;29;20223;-72
2023/04/23 10:09:12;;;;;;;2.33;0.50;;;18.50;99.90;;;;;;4935013;29;20240;-72
2023/04/23 10:11:41;;;;;;;2.83;0.70;;;18.40;99.90;;;;;;4935300;29;20695;-69
2023/04/23 10:14:09;;;;;;;1.65;0.60;;;18.20;99.90;;;;;;4938213;29;20328;-70
2023/04/23 10:16:36;;;;;;;1.73;0.50;;;18.30;99.90;;;;;;4938942;29;20213;-69
2023/04/23 10:19:06;;;;;;;2.00;0.50;;;18.40;99.90;;;;;;4938781;29;20296;-70
2023/04/23 10:21:34;;;;;;;3.05;0.55;;;18.60;99.90;;;;;;4938963;29;20205;-69
2023/04/23 10:24:02;;;;;;;2.00;0.60;;;18.60;99.90;;;;;;4937700;29;20308;-71
2023/04/23 10:26:32;;;;;;;2.67;0.60;;;18.10;99.90;;;;;;4938719;29;20661;-72
2023/04/23 10:29:01;;;;;;;3.72;0.77;;;17.90;99.90;;;;;;4938517;29;20331;-69
2023/04/23 10:31:30;;;;;;;3.63;0.77;;;18.00;99.90;;;;;;4938503;29;20308;-70
2023/04/23 10:33:58;;;;;;;1.92;0.60;;;18.00;99.90;;;;;;4938383;29;20582;-70
2023/04/23 10:36:26;;;;;;;3.95;0.63;;;18.10;99.90;;;;;;4937780;29;20240;-70
2023/04/23 10:38:58;;;;;;;2.88;0.75;;;18.30;99.90;;;;;;4938107;29;20213;-70
2023/04/23 10:41:29;;;;;;;2.05;0.95;;;18.20;99.90;;;;;;4937886;29;20265;-70
2023/04/23 10:43:57;;;;;;;1.08;0.52;;;17.90;99.90;;;;;;4938243;29;20263;-71
2023/04/23 10:46:31;;;;;;;0.50;0.40;;;17.80;99.90;;;;;;4938553;29;20299;-70
2023/04/23 10:49:12;;;;;;;2.33;0.80;;;18.00;99.90;;;;;;4938276;29;20237;-70
2023/04/23 10:51:40;;;;;;;2.67;0.57;;;18.00;99.90;;;;;;4938183;29;20211;-72
2023/04/23 10:54:10;;;;;;;1.80;0.50;;;17.70;99.90;;;;;;4937960;29;20239;-70
2023/04/23 10:56:41;;;;;;;2.15;0.60;;;17.80;99.90;;;;;;4937928;29;20209;-72
2023/04/23 10:59:17;;;;;;;2.38;0.50;;;17.90;99.90;;;;;;4938290;29;20263;-72
2023/04/23 11:01:47;;;;;;;1.60;0.70;;;18.40;99.90;;;;;;4933423;29;20296;-75
2023/04/23 11:04:22;;;;;;;1.83;0.50;;;18.10;99.90;;;;;;4936590;29;20231;-73
2023/04/23 11:06:55;;;;;;;4.32;0.68;;;17.90;99.90;;;;;;4936376;29;20232;-72
2023/04/23 11:09:38;;;;;;;1.05;0.55;;;18.10;99.90;;;;;;4936995;29;20311;-73
2023/04/23 11:12:08;;;;;;;2.33;0.40;;;18.80;99.90;;;;;;4936784;29;20240;-75
2023/04/23 11:14:37;;;;;;;2.20;0.50;;;18.80;99.90;;;;;;4937455;29;20213;-72
2023/04/23 11:17:05;;;;;;;2.58;0.40;;;18.70;99.90;;;;;;4937576;29;20204;-73
2023/04/23 11:19:35;;;;;;;3.15;0.38;;;18.70;99.90;;;;;;4937741;29;20255;-72
2023/04/23 11:22:05;;;;;;;2.03;0.50;;;18.60;99.90;;;;;;4937741;29;20248;-71
2023/04/23 11:24:40;;;;;;;1.05;0.43;;;19.00;99.90;;;;;;4937149;29;20622;-72
2023/04/23 11:27:08;;;;;;;2.58;0.50;;;18.80;99.90;;;;;;4937392;29;20216;-73
2023/04/23 11:29:36;;;;;;;2.67;0.60;;;18.80;99.90;;;;;;4937499;29;20292;-72
2023/04/23 11:32:04;;;;;;;2.83;0.55;;;18.70;99.90;;;;;;4937281;29;20575;-73
2023/04/23 11:34:32;;;;;;;3.40;0.60;;;18.60;99.90;;;;;;4937350;29;20358;-74
2023/04/23 11:37:00;;;;;;;1.15;0.50;;;18.40;99.90;;;;;;4937112;29;20733;-71
2023/04/23 11:39:27;;;;;;;0.98;0.40;;;18.20;99.90;;;;;;4937325;29;20249;-72
2023/04/23 11:41:55;;;;;;;2.55;0.50;;;18.30;99.90;;;;;;4937276;29;20397;-72
2023/04/23 11:44:22;;;;;;;2.22;0.50;;;18.40;99.90;;;;;;4936834;29;20236;-72
2023/04/23 11:46:50;;;;;;;1.52;0.40;;;18.50;99.90;;;;;;4937108;29;20308;-72
2023/04/23 11:49:19;;;;;;;3.53;0.40;;;18.50;99.90;;;;;;4937501;29;20292;-72
2023/04/23 11:51:48;;;;;;;3.80;0.70;;;18.50;99.90;;;;;;4937066;29;20209;-72
2023/04/23 11:54:15;;;;;;;1.13;0.30;;;18.30;99.90;;;;;;4936772;29;20324;-72
2023/04/23 11:56:42;;;;;;;3.13;0.60;;;18.20;99.90;;;;;;4936565;29;20630;-74
2023/04/23 11:59:10;;;;;;;2.30;0.40;;;18.00;99.90;;;;;;4936709;29;20244;-72
2023/04/23 12:01:45;;;;;;;1.25;0.50;;;17.80;99.90;;;;;;4937042;29;20674;-72
2023/04/23 12:04:14;;;;;;;2.90;0.83;;;17.20;99.90;;;;;;4936686;29;20331;-74
2023/04/23 12:06:43;;;;;;;2.10;0.50;;;17.10;99.90;;;;;;4936813;29;20259;-72
2023/04/23 12:09:11;;;;;;;0.97;0.40;;;16.90;99.90;;;;;;4931567;29;20309;-73
2023/04/23 12:11:38;;;;;;;1.43;0.50;;;16.70;99.90;;;;;;4929214;29;20655;-72
2023/04/23 12:14:07;;;;;;;2.70;0.60;;;16.40;99.90;;;;;;4936655;29;20256;-71
2023/04/23 12:16:37;;;;;;;4.00;0.40;;;16.10;99.90;;;;;;4936272;29;20208;-70
2023/04/23 12:19:04;;;;;;;1.53;0.60;;;15.90;99.90;;;;;;4936141;29;20319;-71
2023/04/23 12:21:31;;;;;;;1.27;0.60;;;15.70;99.90;;;;;;4935985;29;20213;-73
2023/04/23 12:23:59;;;;;;;2.93;0.90;;;15.50;99.90;;;;;;4936130;29;20229;-71
2023/04/23 12:26:28;;;;;;;2.70;0.60;;;15.40;99.90;;;;;;4935902;29;20213;-72
2023/04/23 12:28:58;;;;;;;3.27;0.50;;;15.30;99.90;;;;;;4935776;29;20217;-71
2023/04/23 12:31:26;;;;;;;5.80;0.80;;;14.90;99.90;;;;;;4936023;29;20215;-73
2023/04/23 12:34:04;;;;;;;1.77;0.67;;;14.60;99.90;;;;;;4935995;29;20267;-73
2023/04/23 12:36:32;;;;;;;1.20;0.50;;;14.30;99.90;;;;;;4935244;29;20209;-72
2023/04/23 12:39:22;;;;;;;2.30;0.50;;;14.10;99.90;;;;;;4935640;29;20328;-71
2023/04/23 12:41:51;;;;;;;3.17;0.43;;;13.90;99.90;;;;;;4935912;29;20232;-72
2023/04/23 12:44:18;;;;;;;1.70;0.40;;;13.80;99.90;;;;;;4935413;29;20231;-72
2023/04/23 12:46:45;;;;;;;1.30;0.57;;;13.80;99.90;;;;;;4935784;29;20300;-72
2023/04/23 12:49:13;;;;;;;1.43;0.50;;;13.90;99.90;;;;;;4935778;29;20299;-70
2023/04/23 12:51:40;;;;;;;1.23;0.90;;;14.00;99.90;;;;;;4936202;29;20240;-71
2023/04/23 12:54:07;;;;;;;0.87;0.50;;;14.20;99.90;;;;;;4935844;29;20311;-71
2023/04/23 12:56:35;;;;;;;1.50;0.60;;;14.20;99.90;;;;;;4935720;29;20216;-70
2023/04/23 12:59:03;;;;;;;3.60;0.60;;;14.20;99.90;;;;;;4935718;29;20228;-74
2023/04/23 13:01:30;;;;;;;1.03;0.70;;;14.10;99.90;;;;;;4935773;29;20244;-73
2023/04/23 13:03:57;;;;;;;1.60;0.53;;;14.10;99.90;;;;;;4935572;29;20264;-71
2023/04/23 13:06:28;;;;;;;4.57;1.00;;;14.10;99.90;;;;;;4934987;29;20618;-72
2023/04/23 13:08:55;;;;;;;1.50;0.53;;;13.90;99.90;;;;;;4935158;29;20271;-73
2023/04/23 13:11:23;;;;;;;1.67;0.60;;;14.10;99.90;;;;;;4935699;29;20236;-73
2023/04/23 13:13:50;;;;;;;2.33;0.63;;;14.30;99.90;;;;;;4935508;29;20229;-72
2023/04/23 13:16:17;;;;;;;1.00;0.60;;;14.40;99.90;;;;;;4935652;29;20213;-70
2023/04/23 13:18:44;;;;;;;1.83;0.73;;;14.30;99.90;;;;;;4935382;29;20216;-72
2023/04/23 13:21:11;;;;;;;0.83;0.60;;;14.30;99.90;;;;;;4935515;29;20280;-71
2023/04/23 13:23:40;;;;;;;2.50;0.63;;;14.30;99.90;;;;;;4935207;29;20292;-72
2023/04/23 13:26:07;;;;;;;1.50;1.00;;;14.40;99.90;;;;;;4935429;29;20308;-72
2023/04/23 13:28:35;;;;;;;1.30;0.50;;;14.50;99.90;;;;;;4935003;29;20694;-72
2023/04/23 13:31:02;;;;;;;2.30;0.50;;;14.60;99.90;;;;;;4935183;29;20213;-72
2023/04/23 13:33:29;;;;;;;2.30;0.60;;;14.70;99.90;;;;;;4935094;29;20320;-73
2023/04/23 13:35:57;;;;;;;4.70;0.80;;;14.80;99.90;;;;;;4934930;29;20248;-72
2023/04/23 13:38:25;;;;;;;1.67;0.57;;;14.80;99.90;;;;;;4935106;29;20207;-73
2023/04/23 13:40:53;;;;;;;3.50;0.83;;;14.80;99.90;;;;;;4935416;29;20244;-72
2023/04/23 13:43:20;;;;;;;1.23;0.60;;;14.50;99.90;;;;;;4935562;29;20316;-73
2023/04/23 13:45:47;;;;;;;2.73;0.73;;;14.40;99.90;;;;;;4935434;29;20295;-71
2023/04/23 13:48:15;;;;;;;2.03;0.60;;;14.30;99.90;;;;;;4941106;29;20251;-71
2023/04/23 13:50:43;;;;;;;1.20;0.70;;;14.30;99.90;;;;;;4941951;29;20258;-70
2023/04/23 13:53:10;;;;;;;1.47;0.63;;;14.40;99.90;;;;;;4941706;29;20232;-72
2023/04/23 13:55:37;;;;;;;2.77;0.80;;;14.30;99.90;;;;;;4941506;29;20577;-73
2023/04/23 13:58:06;;;;;;;3.03;0.70;;;14.30;99.90;;;;;;4941647;29;20267;-70
2023/04/23 14:00:34;;;;;;;1.80;0.93;;;14.20;99.90;;;;;;4941480;29;20244;-71
2023/04/23 14:03:01;;;;;;;2.47;0.70;;;14.30;99.90;;;;;;4941712;29;20232;-71
2023/04/23 14:05:27;;;;;;;2.93;0.83;;;14.20;99.90;;;;;;4941578;29;20244;-71
2023/04/23 14:07:55;;;;;;;3.87;0.97;;;14.10;99.90;;;;;;4941414;29;20263;-71
2023/04/23 14:10:22;;;;;;;2.60;0.73;;;13.90;99.90;;;;;;4922170;29;20217;-70
2023/04/23 14:12:49;;;;;;;4.57;0.90;;;13.90;99.90;;;;;;4922249;29;20316;-70
2023/04/23 14:15:17;;;;;;;1.57;0.80;;;13.80;99.90;;;;;;4922601;29;20291;-72
2023/04/23 14:17:44;;;;;;;2.03;0.80;;;13.80;99.90;;;;;;4922276;29;20300;-71
2023/04/23 14:20:14;;;;;;;2.50;0.90;;;13.60;99.90;;;;;;4939710;29;20808;-70
2023/04/23 14:22:41;;;;;;;2.70;0.77;;;13.50;99.90;;;;;;4940923;29;20416;-71
2023/04/23 14:25:10;;;;;;;5.23;0.83;;;13.50;99.90;;;;;;4941664;29;20295;-71
2023/04/23 14:27:41;;;;;;;2.60;0.70;;;13.60;99.90;;;;;;4941704;29;20288;-70
2023/04/23 14:30:19;;;;;;;3.90;1.37;;;13.80;99.90;;;;;;4940974;29;20268;-71
2023/04/23 14:32:47;;;;;;;1.00;0.60;;;13.90;99.90;;;;;;4941108;29;20264;-70
2023/04/23 14:35:14;;;;;;;3.97;0.80;;;14.00;99.90;;;;;;4941143;29;20303;-72
2023/04/23 14:37:44;;;;;;;0.83;0.60;;;14.10;99.90;;;;;;4941422;29;20208;-71
2023/04/23 14:40:14;;;;;;;3.30;0.80;;;14.30;99.90;;;;;;4941123;29;20241;-70
2023/04/23 14:42:41;;;;;;;0.90;0.60;;;14.50;99.90;;;;;;4941126;29;20232;-71
2023/04/23 14:45:09;;;;;;;1.20;0.70;;;14.60;99.90;;;;;;4941290;29;20209;-71
2023/04/23 14:47:39;;;;;;;2.50;0.63;;;14.70;99.90;;;;;;4941220;29;20729;-70
2023/04/23 14:50:07;;;;;;;1.03;0.70;;;14.80;99.90;;;;;;4941304;29;20219;-71
2023/04/23 14:52:34;;;;;;;2.03;0.70;;;15.00;99.90;;;;;;4940935;29;20320;-70
2023/04/23 14:55:01;;;;;;;1.83;0.93;;;14.90;99.90;;;;;;4941177;29;20243;-70
2023/04/23 14:57:28;;;;;;;0.87;0.63;;;15.00;99.90;;;;;;4940959;29;20245;-71
2023/04/23 14:59:55;;;;;;;1.00;0.60;;;15.20;99.90;;;;;;4936942;29;20241;-70
2023/04/23 15:02:22;;;;;;;1.83;0.50;;;15.10;99.90;;;;;;4937312;29;20594;-70
2023/04/23 15:04:50;;;;;;;1.90;0.87;;;15.00;99.90;;;;;;4937559;29;20732;-70
2023/04/23 15:07:17;;;;;;;6.20;0.80;;;15.10;99.90;;;;;;4937441;29;20241;-70
2023/04/23 15:09:44;;;;;;;2.20;0.60;;;15.10;99.90;;;;;;4937666;29;20303;-71
2023/04/23 15:12:47;;;;;;;2.20;0.50;;;15.10;99.90;;;;;;4937677;29;20232;-71
2023/04/23 15:15:21;;;;;;;0.97;0.77;;;15.00;99.90;;;;;;4937668;29;20236;-71
2023/04/23 15:17:48;;;;;;;1.33;0.60;;;15.00;99.90;;;;;;4937738;29;20317;-70
2023/04/23 15:20:16;;;;;;;1.70;1.30;;;15.10;99.90;;;;;;4934670;29;20236;-70
2023/04/23 15:22:43;;;;;;;1.40;0.80;;;15.10;99.90;;;;;;4935868;29;20229;-70
2023/04/23 15:25:10;;;;;;;2.80;0.70;;;15.20;99.90;;;;;;4937308;29;20280;-70
2023/04/23 15:27:37;;;;;;;1.97;0.70;;;15.40;99.90;;;;;;4937818;29;20291;-69
2023/04/23 15:30:05;;;;;;;1.27;0.63;;;15.40;99.90;;;;;;4937510;29;20224;-69
2023/04/23 15:32:32;;;;;;;0.83;0.50;;;15.50;99.90;;;;;;4937052;29;20270;-69
2023/04/23 15:34:59;;;;;;;3.23;0.90;;;15.30;99.90;;;;;;4937248;29;20264;-69
2023/04/23 15:37:27;;;;;;;0.97;0.70;;;15.20;99.90;;;;;;4936493;29;20296;-69
2023/04/23 15:39:56;;;;;;;0.70;0.60;;;15.10;99.90;;;;;;4936904;29;20228;-68
2023/04/23 15:42:24;;;;;;;0.80;0.70;;;15.00;99.90;;;;;;4936942;29;20299;-69
2023/04/23 15:44:53;;;;;;;0.97;0.60;;;14.90;99.90;;;;;;4932434;29;20216;-71
2023/04/23 15:47:20;;;;;;;1.30;0.70;;;14.80;99.90;;;;;;4936599;29;20272;-69
2023/04/23 15:49:48;;;;;;;1.13;0.70;;;14.90;99.90;;;;;;4937092;29;20208;-71
2023/04/23 15:52:15;;;;;;;1.33;0.50;;;14.70;99.90;;;;;;4936892;29;20236;-70
2023/04/23 15:54:43;;;;;;;0.73;0.57;;;14.80;99.90;;;;;;4937082;29;20237;-71
2023/04/23 15:57:10;;;;;;;0.90;0.60;;;14.80;99.90;;;;;;4936859;29;20757;-72
2023/04/23 15:59:37;;;;;;;2.30;0.70;;;14.90;99.90;;;;;;4937102;29;20212;-71
2023/04/23 16:02:04;;;;;;;2.97;0.60;;;15.00;99.90;;;;;;4936820;29;20641;-72
2023/04/23 16:04:31;;;;;;;1.10;0.60;;;14.80;99.90;;;;;;4937053;29;20229;-71
2023/04/23 16:06:57;;;;;;;0.80;0.70;;;14.80;99.90;;;;;;4936440;29;20240;-70
2023/04/23 16:09:24;;;;;;;0.90;0.50;;;14.90;99.90;;;;;;4936777;29;20293;-69
2023/04/23 16:11:53;;;;;;;0.60;0.43;;;14.80;99.90;;;;;;4935952;29;20621;-70
2023/04/23 16:14:20;;;;;;;0.63;0.40;;;14.90;99.90;;;;;;4936277;29;20228;-69
2023/04/23 16:16:47;;;;;;;0.83;0.40;;;14.80;99.90;;;;;;4936459;29;20305;-68
2023/04/23 16:19:14;;;;;;;0.90;0.60;;;14.70;99.90;;;;;;4936290;29;20221;-69
2023/04/23 16:21:41;;;;;;;0.40;0.33;;;14.60;99.90;;;;;;4936531;29;20784;-70
2023/04/23 16:24:08;;;;;;;1.30;0.60;;;14.60;99.90;;;;;;4936019;29;20312;-70
2023/04/23 16:26:36;;;;;;;0.60;0.40;;;14.50;99.90;;;;;;4936140;29;20208;-72
2023/04/23 16:29:05;;;;;;;0.70;0.50;;;14.40;99.90;;;;;;4936022;29;20209;-71
2023/04/23 16:31:32;;;;;;;3.80;0.50;;;14.50;99.90;;;;;;4936067;29;20255;-70
2023/04/23 16:33:59;;;;;;;0.73;0.57;;;14.50;99.90;;;;;;4935223;29;20263;-69
2023/04/23 16:36:26;;;;;;;1.30;0.50;;;14.50;99.90;;;;;;4935702;29;20216;-71
2023/04/23 16:38:53;;;;;;;0.70;0.50;;;14.50;99.90;;;;;;4934857;29;20340;-71
2023/04/23 16:41:20;;;;;;;0.47;0.40;;;14.40;99.90;;;;;;4934808;29;20329;-69
2023/04/23 16:43:47;;;;;;;1.10;0.60;;;14.40;99.90;;;;;;4934897;29;20225;-69
2023/04/23 16:46:16;;;;;;;1.00;0.50;;;14.30;99.90;;;;;;4935296;29;20721;-70
2023/04/23 16:48:43;;;;;;;9.83;0.77;;;13.50;99.90;;;;;;4935901;29;20217;-69
2023/04/23 16:51:10;;;;;;;0.40;0.30;;;12.80;99.90;;;;;;4935221;29;20303;-69
2023/04/23 16:53:37;;;;;;;0.50;0.40;;;12.40;99.90;;;;;;4935617;29;20659;-70
2023/04/23 16:56:04;;;;;;;2.13;0.20;;;12.20;99.90;;;;;;4935896;29;20217;-68
2023/04/23 16:58:31;;;;;;;0.70;0.30;;;12.10;99.90;;;;;;4936046;29;20299;-74
2023/04/23 17:00:58;;;;;;;0.53;0.40;;;12.20;99.90;;;;;;4935425;29;20788;-72
2023/04/23 17:03:26;;;;;;;1.40;0.30;;;12.10;99.90;;;;;;4935632;29;20260;-73
2023/04/23 17:06:00;;;;;;;0.80;0.43;;;12.00;99.90;;;;;;4935391;29;20296;-72
2023/04/23 17:08:27;;;;;;;1.83;0.40;;;12.10;99.90;;;;;;4916262;29;20210;-72
2023/04/23 17:10:54;;;;;;;0.70;0.30;;;11.90;99.90;;;;;;4916287;29;20206;-71
2023/04/23 17:13:21;;;;;;;0.83;0.23;;;11.80;99.90;;;;;;4915988;29;20321;-71
2023/04/23 17:15:48;;;;;;;0.30;0.20;;;11.70;99.90;;;;;;4916705;29;20289;-72
2023/04/23 17:18:15;;;;;;;3.50;0.23;;;11.60;99.90;;;;;;4916544;29;20241;-73
2023/04/23 17:20:43;;;;;;;0.37;0.23;;;11.50;99.90;;;;;;4916414;29;20317;-72
2023/04/23 17:23:10;;;;;;;0.30;0.20;;;11.30;99.90;;;;;;4915709;29;20230;-71
2023/04/23 17:25:37;;;;;;;0.47;0.30;;;11.10;99.90;;;;;;4915943;29;20471;-76
2023/04/23 17:28:04;;;;;;;0.60;0.30;;;10.90;99.90;;;;;;4928402;29;20297;-74
2023/04/23 17:30:31;;;;;;;0.37;0.30;;;10.90;99.90;;;;;;4916372;29;20724;-74
2023/04/23 17:32:58;;;;;;;0.30;0.20;;;10.90;99.90;;;;;;4923400;29;20264;-74
2023/04/23 17:35:25;;;;;;;0.30;0.20;;;10.80;99.90;;;;;;4935086;29;20255;-75
2023/04/23 17:37:53;;;;;;;0.97;0.70;;;10.80;99.90;;;;;;4934783;29;20304;-76
2023/04/23 17:40:20;;;;;;;0.30;0.20;;;10.80;99.90;;;;;;4934928;29;20744;-75
2023/04/23 17:42:47;;;;;;;1.07;0.30;;;10.70;99.90;;;;;;4934961;29;20224;-75
2023/04/23 17:45:14;;;;;;;0.37;0.27;;;10.60;99.90;;;;;;4935340;29;20232;-76
2023/04/23 17:47:41;;;;;;;0.50;0.20;;;10.60;99.90;;;;;;4934991;29;20292;-76
2023/04/23 17:50:10;;;;;;;1.50;0.30;;;10.50;99.90;;;;;;4935217;29;20669;-74
2023/04/23 17:52:39;;;;;;;0.83;0.40;;;10.50;99.90;;;;;;4935379;29;20243;-76
2023/04/23 17:55:08;;;;;;;0.27;0.20;;;10.40;99.90;;;;;;4935111;29;20308;-75
2023/04/23 17:57:35;;;;;;;3.63;0.20;;;10.40;99.90;;;;;;4935337;29;20566;-76
2023/04/23 18:00:08;;;;;;;0.30;0.20;;;10.40;99.90;;;;;;4935667;29;20240;-71
2023/04/23 18:02:38;;;;;;;0.43;0.30;;;10.40;99.90;;;;;;4935573;29;20244;-73
2023/04/23 18:05:06;;;;;;;1.37;0.40;;;10.40;99.90;;;;;;4935079;29;20366;-73
2023/04/23 18:07:33;;;;;;;1.17;0.20;;;10.40;99.90;;;;;;4934625;29;20231;-73
2023/04/23 18:10:00;;;;;;;0.63;0.40;;;10.40;99.90;;;;;;4934829;29;20212;-72
2023/04/23 18:12:30;;;;;;;0.30;0.20;;;10.30;99.90;;;;;;4934905;29;20311;-74
2023/04/23 18:14:58;;;;;;;0.30;0.20;;;10.20;99.90;;;;;;4935349;29;20681;-74
2023/04/23 18:17:25;;;;;;;0.80;0.50;;;10.10;99.90;;;;;;4935567;29;20240;-73
2023/04/23 18:19:53;;;;;;;1.13;0.50;;;10.10;99.90;;;;;;4935264;29;20570;-73
2023/04/23 18:22:20;;;;;;;0.40;0.40;;;10.00;99.90;;;;;;4934426;29;20296;-73
2023/04/23 18:24:48;;;;;;;0.90;0.67;;;10.00;99.90;;;;;;4934914;29;20241;-73
2023/04/23 18:27:15;;;;;;;1.50;0.57;;;9.90;99.90;;;;;;4934746;29;20219;-75
2023/04/23 18:29:43;;;;;;;0.77;0.43;;;9.90;99.90;;;;;;4934978;29;20213;-72
2023/04/23 18:32:11;;;;;;;0.60;0.50;;;9.90;99.90;;;;;;4935027;29;20213;-73
2023/04/23 18:34:40;;;;;;;0.50;0.40;;;9.80;99.90;;;;;;4937353;29;20227;-72
2023/04/23 18:37:09;;;;;;;0.40;0.40;;;9.90;99.90;;;;;;4938555;29;20244;-73
2023/04/23 18:39:36;;;;;;;2.60;0.60;;;9.80;99.90;;;;;;4938767;29;20390;-72
2023/04/23 18:42:03;;;;;;;0.70;0.50;;;9.80;99.90;;;;;;4938421;29;20327;-75
2023/04/23 18:44:31;;;;;;;1.33;0.40;;;9.80;99.90;;;;;;4938269;29;20316;-74
2023/04/23 18:46:59;;;;;;;1.40;0.67;;;9.80;99.90;;;;;;4937940;29;20213;-73
2023/04/23 18:49:43;;;;;;;0.57;0.50;;;9.80;99.90;;;;;;4930408;29;20293;-74
2023/04/23 18:52:10;;;;;;;0.70;0.43;;;9.80;99.90;;;;;;4926050;29;20296;-73
2023/04/23 18:54:37;;;;;;;0.60;0.43;;;9.70;99.90;;;;;;4932063;29;20303;-74
2023/04/23 18:57:04;;;;;;;0.57;0.50;;;9.80;99.90;;;;;;4930184;29;20205;-72
2023/04/23 18:59:34;;;;;;;1.40;0.63;;;9.80;99.90;;;;;;4925232;29;20299;-74
2023/04/23 19:02:02;;;;;;;1.00;0.40;;;9.70;99.90;;;;;;4933397;29;20236;-74
2023/04/23 19:04:30;;;;;;;3.67;0.60;;;9.80;99.90;;;;;;4937399;29;20225;-72
2023/04/23 19:06:57;;;;;;;0.80;0.47;;;9.70;99.90;;;;;;4933496;29;20248;-73
2023/04/23 19:09:24;;;;;;;0.70;0.50;;;9.80;99.90;;;;;;4935197;29;20670;-72
2023/04/23 19:11:51;;;;;;;0.80;0.53;;;9.80;99.90;;;;;;4930357;29;20212;-70
2023/04/23 19:14:18;;;;;;;1.10;0.70;;;9.90;99.90;;;;;;4934535;29;20255;-73
2023/04/23 19:16:46;;;;;;;1.30;0.63;;;9.90;99.90;;;;;;4932470;29;20212;-74
2023/04/23 19:19:14;;;;;;;1.23;0.60;;;10.00;99.90;;;;;;4935348;29;22731;-71
2023/04/23 19:21:41;;;;;;;1.20;0.70;;;9.90;99.90;;;;;;4932691;29;20319;-75
2023/04/23 19:24:08;;;;;;;0.67;0.50;;;10.00;99.90;;;;;;4934548;29;20241;-72
2023/04/23 19:26:35;;;;;;;0.80;0.70;;;10.00;99.90;;;;;;4932738;29;20240;-74
2023/04/23 19:29:05;;;;;;;2.23;0.80;;;10.00;99.90;;;;;;4932480;29;20631;-74
2023/04/23 19:31:35;;;;;;;1.20;0.80;;;10.00;99.90;;;;;;4932467;29;20305;-72
2023/04/23 19:34:02;;;;;;;1.87;0.60;;;10.10;99.90;;;;;;4930727;29;20717;-71
2023/04/23 19:36:31;;;;;;;3.67;1.07;;;10.10;99.90;;;;;;4936693;29;20240;-71
2023/04/23 19:38:58;;;;;;;1.67;1.10;;;10.10;99.90;;;;;;4930750;29;20216;-74
2023/04/23 19:41:25;;;;;;;1.10;1.00;;;10.20;99.90;;;;;;4924869;29;20328;-72
2023/04/23 19:43:52;;;;;;;1.70;1.13;;;10.20;99.90;;;;;;4929722;29;20230;-72
2023/04/23 19:46:19;;;;;;;1.93;1.27;;;10.10;99.90;;;;;;4936608;29;20288;-73
2023/04/23 19:48:46;;;;;;;2.70;1.53;;;10.10;99.90;;;;;;4931004;29;20252;-71
2023/04/23 19:51:13;;;;;;;1.93;1.40;;;10.10;99.90;;;;;;4936589;29;20248;-72
2023/04/23 19:53:42;;;;;;;1.70;1.00;;;10.10;99.90;;;;;;4926976;29;20237;-72
2023/04/23 19:56:11;;;;;;;1.60;1.40;;;10.10;99.90;;;;;;4936326;29;20301;-71
2023/04/23 19:58:39;;;;;;;4.37;0.90;;;10.10;99.90;;;;;;4932741;29;20208;-71
2023/04/23 20:01:06;;;;;;;1.90;1.07;;;10.10;99.90;;;;;;4934962;29;20526;-71
2023/04/23 20:03:34;;;;;;;3.10;1.23;;;10.20;99.90;;;;;;4972477;23;20277;-69
2023/04/23 20:06:01;;;;;;;1.20;0.90;;;10.20;99.90;;;;;;4992798;28;20211;-69
2023/04/23 20:08:40;;;;;;;1.63;1.20;;;10.20;99.90;;;;;;4977370;28;20250;-69
2023/04/23 20:11:09;;;;;;;3.10;1.20;;;10.20;99.90;;;;;;4989754;28;20203;-69
2023/04/23 20:13:36;;;;;;;1.77;1.10;;;10.20;99.90;;;;;;4987839;28;20761;-69
2023/04/23 20:16:03;;;;;;;1.83;1.10;;;10.20;99.90;;;;;;4978386;28;20338;-69
2023/04/23 20:18:33;;;;;;;2.33;1.40;;;10.20;99.90;;;;;;4980290;28;20571;-70
2023/04/23 20:21:00;;;;;;;2.30;1.60;;;10.30;99.90;;;;;;4968629;28;20213;-70
2023/04/23 20:23:26;;;;;;;3.40;1.13;;;10.30;99.90;;;;;;4974272;28;20775;-69
2023/04/23 20:25:53;;;;;;;1.93;1.20;;;10.30;99.90;;;;;;4969847;28;20230;-70
2023/04/23 20:28:22;;;;;;;4.73;1.23;;;10.20;99.90;;;;;;4974343;28;20239;-70
2023/04/23 20:30:48;;;;;;;2.13;1.10;;;10.20;99.90;;;;;;4965802;28;20243;-70
2023/04/23 20:33:17;;;;;;;4.30;1.20;;;10.20;99.90;;;;;;4974359;28;20314;-68
2023/04/23 20:35:44;;;;;;;2.50;1.10;;;10.30;99.90;;;;;;4972465;28;20230;-68
2023/04/23 20:38:12;;;;;;;1.37;1.00;;;10.20;99.90;;;;;;4977201;28;20615;-69
2023/04/23 20:40:39;;;;;;;2.87;1.40;;;10.30;99.90;;;;;;4972427;28;20210;-68
2023/04/23 20:43:07;;;;;;;1.90;1.27;;;10.30;99.90;;;;;;4986209;28;20269;-68
2023/04/23 20:45:35;;;;;;;2.73;1.30;;;10.40;99.90;;;;;;4966365;28;20218;-68
2023/04/23 20:48:02;;;;;;;2.40;1.73;;;10.30;99.90;;;;;;4984912;28;20261;-68
2023/04/23 20:50:29;;;;;;;3.40;1.63;;;10.30;99.90;;;;;;4970384;28;20214;-68
2023/04/23 20:52:56;;;;;;;3.27;1.97;;;10.30;99.90;;;;;;4981627;28;20226;-68
2023/04/23 20:55:23;;;;;;;2.73;1.67;;;10.40;99.90;;;;;;4967580;28;20207;-68
2023/04/23 20:57:50;;;;;;;4.43;2.30;;;10.30;99.90;;;;;;4979623;28;20236;-68
2023/04/23 21:00:19;;;;;;;2.07;1.70;;;10.30;99.90;;;;;;4977934;28;20699;-68